Data for 08/28/2008

Time Sea-Level Adjusted Pressure Absolute Pressure Temperature Relative Humidity Dew Point   
(mb) (inHg) (mb) (inHg) (C) (F) (%) (C) (F)
00:05 1020 30.12 849 25.07 12.5 54.5 43 0.2 32.4
00:10 1020 30.12 849 25.07 12.5 54.4 42 0.1 32.1
00:15 1020 30.12 849 25.07 12.4 54.4 43 0.2 32.4
00:20 1020 30.12 849 25.07 12.4 54.2 43 0.3 32.5
00:25 1020 30.12 849 25.07 12.3 54.1 44 0.3 32.5
00:30 1020 30.12 850 25.1 12.2 53.9 45 0.8 33.4
00:35 1020 30.12 850 25.1 11.2 52.2 50 1.3 34.3
00:40 1020 30.12 849 25.07 10.4 50.8 52 0.9 33.6
00:45 1020 30.12 849 25.07 10.4 50.7 52 1 33.7
00:50 1020 30.12 849 25.07 10.6 51.1 51 0.9 33.6
00:55 1020 30.12 849 25.07 10.8 51.4 51 1.2 34.1
01:00 1020 30.12 849 25.07 10.8 51.4 51 1 33.8
01:05 1020 30.12 849 25.07 10.8 51.5 50 0.9 33.7
01:10 1020 30.12 849 25.07 10.9 51.7 50 0.9 33.7
01:15 1020 30.12 849 25.07 11.1 51.9 49 0.9 33.7
01:20 1020 30.12 849 25.07 11.2 52.2 48 0.7 33.3
01:25 1020 30.12 849 25.07 11.4 52.5 49 1 33.8
01:30 1020 30.12 849 25.07 11.1 52 52 1.7 35.1
01:35 1020 30.12 849 25.07 10.6 51.2 51 0.8 33.5
01:40 1020 30.12 849 25.07 11 51.7 49 0.6 33.2
01:45 1020 30.12 849 25.07 11.4 52.5 48 0.9 33.6
01:50 1020 30.12 849 25.07 10.7 51.2 56 2.2 36
01:55 1020 30.12 849 25.07 9.2 48.5 57 1.2 34.2
02:00 1020 30.12 849 25.07 9.2 48.6 56 0.8 33.5
02:05 1020 30.12 849 25.07 9.5 49.1 55 0.9 33.6
02:10 1020 30.12 849 25.07 9.6 49.2 54 0.8 33.4
02:15 1020 30.12 849 25.07 9.8 49.6 53 0.7 33.3
02:20 1020 30.12 849 25.07 10 49.9 53 0.9 33.7
02:25 1020 30.12 849 25.07 10.1 50.2 52 0.6 33.1
02:30 1020 30.12 849 25.07 10.5 50.9 51 0.7 33.3
02:35 1020 30.12 849 25.07 11 51.8 48 0.5 32.8
02:40 1020 30.12 850 25.1 11.1 52 48 0.7 33.2
02:45 1020 30.12 850 25.1 11.1 52 49 0.7 33.3
02:50 1020 30.12 850 25.1 11.1 51.9 48 0.7 33.2
02:55 1020 30.12 850 25.1 11 51.8 50 1 33.8
03:00 1020 30.12 850 25.1 10.6 51.1 53 1.5 34.7
03:05 1020 30.12 850 25.1 9.7 49.4 55 1.2 34.2
03:10 1020 30.12 850 25.1 9.5 49.2 55 1.1 33.9
03:15 1020 30.12 850 25.1 9.6 49.3 56 1.3 34.3
03:20 1020 30.12 850 25.1 9.6 49.3 55 1.1 34
03:25 1020 30.12 850 25.1 9.5 49.1 56 1.1 34
03:30 1020 30.12 850 25.1 9.5 49.1 55 1 33.9
03:35 1020 30.12 850 25.1 9.5 49.2 54 0.8 33.5
03:40 1020 30.12 850 25.1 9.7 49.4 53 0.6 33.1
03:45 1020 30.12 850 25.1 10 50 52 0.7 33.3
03:50 1020 30.12 850 25.1 9.9 49.9 53 0.9 33.7
03:55 1021 30.15 850 25.1 9.5 49.2 55 1.1 33.9
04:00 1020 30.12 850 25.1 9.1 48.3 57 0.9 33.7
04:05 1021 30.15 850 25.1 8.9 48 58 1.1 33.9
04:10 1021 30.15 850 25.1 8.9 48 57 1 33.7
04:15 1021 30.15 850 25.1 8.2 46.8 59 0.7 33.2
04:20 1021 30.15 850 25.1 8.6 47.5 57 0.6 33.1
04:25 1021 30.15 850 25.1 8.5 47.4 59 1 33.8
04:30 1020 30.12 850 25.1 8.3 46.9 59 0.8 33.4
04:35 1020 30.12 850 25.1 7.9 46.2 64 1.6 34.8
04:40 1020 30.12 850 25.1 7.6 45.6 61 0.5 32.9
04:45 1020 30.12 850 25.1 8.2 46.8 60 0.9 33.7
04:50 1020 30.12 850 25.1 8.2 46.8 60 1.1 33.9
04:55 1020 30.12 850 25.1 8.4 47.1 59 1 33.8
05:00 1020 30.12 850 25.1 8.6 47.5 59 1 33.9
05:05 1021 30.15 850 25.1 8.1 46.6 62 1.4 34.5
05:10 1021 30.15 850 25.1 7.3 45.2 65 1.2 34.1
05:15 1021 30.15 850 25.1 7.1 44.9 64 0.8 33.4
05:20 1021 30.15 850 25.1 7.5 45.4 63 0.9 33.6
05:25 1021 30.15 850 25.1 7.6 45.6 63 0.9 33.7
05:30 1020 30.12 850 25.1 7.7 45.8 61 0.6 33.1
05:35 1020 30.12 850 25.1 7.8 46.1 62 1 33.9
05:40 1020 30.12 850 25.1 7.4 45.3 64 1.1 33.9
05:45 1020 30.12 850 25.1 7 44.7 65 1 33.8
05:50 1020 30.12 850 25.1 6.9 44.3 67 1.2 34.1
05:55 1021 30.15 850 25.1 6.6 43.9 67 0.9 33.6
06:00 1020 30.12 850 25.1 6.8 44.3 65 0.8 33.4
06:05 1020 30.12 850 25.1 7 44.7 65 0.9 33.6
06:10 1021 30.15 850 25.1 7.2 44.9 64 0.9 33.6
06:15 1021 30.15 850 25.1 7.3 45.1 64 1 33.8
06:20 1021 30.15 850 25.1 6.9 44.5 65 0.9 33.6
06:25 1021 30.15 850 25.1 6.8 44.3 66 0.9 33.5
06:30 1021 30.15 850 25.1 6.8 44.2 65 0.8 33.4
06:35 1021 30.15 850 25.1 7.1 44.7 64 0.8 33.4
06:40 1021 30.15 850 25.1 6.7 44.1 67 1.1 34
06:45 1021 30.15 850 25.1 6.4 43.5 67 0.7 33.3
06:50 1021 30.15 850 25.1 6.9 44.4 65 0.7 33.3
06:55 1021 30.15 850 25.1 7 44.5 64 0.5 33
07:00 1021 30.15 850 25.1 7 44.6 64 0.7 33.3
07:05 1021 30.15 850 25.1 7.2 44.9 63 0.7 33.2
07:10 1021 30.15 850 25.1 7 44.5 65 0.8 33.4
07:15 1021 30.15 850 25.1 6.9 44.5 64 0.7 33.2
07:20 1021 30.15 850 25.1 7.1 44.8 63 0.6 33.1
07:25 1021 30.15 850 25.1 7.8 46 60 0.5 32.9
07:30 1021 30.15 850 25.1 8.4 47.2 59 0.8 33.5
07:35 1021 30.15 850 25.1 8.7 47.6 58 0.8 33.5
07:40 1021 30.15 851 25.13 9.3 48.7 56 0.9 33.7
07:45 1021 30.15 850 25.1 9.2 48.5 58 1.4 34.5
07:50 1021 30.15 851 25.13 8.9 48 59 1.4 34.4
07:55 1021 30.15 851 25.13 9 48.2 58 1.3 34.3
08:00 1021 30.15 851 25.13 9 48.3 58 1.4 34.4
08:05 1022 30.18 851 25.13 9 48.2 61 2 35.5
08:10 1022 30.18 851 25.13 9 48.2 58 1.2 34.2
08:15 1022 30.18 851 25.13 9.4 49 56 1.2 34.2
08:20 1022 30.18 851 25.13 10 49.9 55 1.4 34.5
08:25 1022 30.18 851 25.13 10.6 51.1 53 1.5 34.8
08:30 1021 30.15 851 25.13 11 51.8 53 1.8 35.3
08:35 1021 30.15 851 25.13 11.3 52.3 53 2 35.7
08:40 1021 30.15 851 25.13 11.5 52.6 53 2.2 36
08:45 1021 30.15 851 25.13 11.8 53.3 51 2.1 35.7
08:50 1021 30.15 850 25.1 12.4 54.3 49 2.1 35.8
08:55 1021 30.15 850 25.1 13 55.5 47 2.2 35.9
09:00 1021 30.15 850 25.1 13.2 55.7 47 2.3 36.2
09:05 1021 30.15 850 25.1 13.9 56.9 42 1.3 34.3
09:10 1021 30.15 850 25.1 14.7 58.5 40 1.4 34.6
09:15 1021 30.15 850 25.1 14.7 58.5 37 0.3 32.5
09:20 1021 30.15 850 25.1 15.3 59.5 36 0.3 32.6
09:25 1021 30.15 850 25.1 16.1 60.9 34 0.5 32.9
09:30 1021 30.15 850 25.1 15.8 60.4 37 1.3 34.3
09:35 1021 30.15 850 25.1 16 60.9 38 1.8 35.2
09:40 1021 30.15 850 25.1 15.4 59.7 39 1.5 34.7
09:45 1021 30.15 850 25.1 15.8 60.4 40 2.5 36.4
09:50 1021 30.15 850 25.1 15.3 59.5 38 1 33.9
09:55 1021 30.15 850 25.1 14.5 58 40 1.1 33.9
10:00 1021 30.15 850 25.1 14.9 58.8 38 0.7 33.2
10:05 1021 30.15 850 25.1 15.6 60 36 0.8 33.5
10:10 1021 30.15 850 25.1 14.9 58.8 40 1.7 35
10:15 1021 30.15 850 25.1 14.6 58.3 40 1.3 34.4
10:20 1021 30.15 850 25.1 15.1 59.1 39 1.1 34.1
10:25 1021 30.15 850 25.1 15.6 60.1 38 1.5 34.7
10:30 1021 30.15 850 25.1 15.9 60.5 36 0.7 33.3
10:35 1021 30.15 850 25.1 16.8 62.2 33 0.7 33.3
10:40 1021 30.15 850 25.1 16.3 61.4 36 1.3 34.4
10:45 1021 30.15 850 25.1 16.5 61.6 34 0.6 33.1
10:50 1021 30.15 850 25.1 16.6 61.8 33 0.3 32.5
10:55 1021 30.15 850 25.1 17.4 63.2 32 0.5 33
11:00 1021 30.15 850 25.1 17.1 62.8 32 0.5 32.8
11:05 1021 30.15 850 25.1 18 64.4 31 0.6 33.1
11:10 1021 30.15 850 25.1 18.3 64.9 32 1.3 34.3
11:15 1021 30.15 850 25.1 17 62.6 34 1 33.9
11:20 1021 30.15 850 25.1 16.9 62.5 33 0.5 32.9
11:25 1021 30.15 850 25.1 17.8 64 31 0.6 33
11:30 1021 30.15 850 25.1 18.7 65.6 29 0.6 33.1
11:35 1021 30.15 850 25.1 18.4 65.2 30 0.7 33.2
11:40 1021 30.15 850 25.1 18.2 64.7 32 1.3 34.4
11:45 1021 30.15 850 25.1 18.6 65.5 28 0.1 32.1
11:50 1021 30.15 850 25.1 19.4 66.9 28 0.5 32.9
11:55 1021 30.15 850 25.1 19.6 67.3 28 0.6 33.1
12:00 1021 30.15 850 25.1 19.4 67 28 0.7 33.2
12:05 1021 30.15 850 25.1 19.1 66.4 29 0.9 33.6
12:10 1021 30.15 850 25.1 19.5 67 28 0.8 33.4
12:15 1021 30.15 850 25.1 19.8 67.7 28 1.1 33.9
12:20 1021 30.15 850 25.1 19.9 67.7 28 1 33.8
12:25 1021 30.15 850 25.1 20.1 68.3 26 -0.1 31.9
12:30 1021 30.15 850 25.1 20.3 68.6 27 1 33.7
12:35 1021 30.15 850 25.1 20 68 26 0.2 32.4
12:40 1021 30.15 850 25.1 19.7 67.5 26 -0.2 31.6
12:45 1021 30.15 850 25.1 20.8 69.4 27 1.1 34
12:50 1020 30.12 850 25.1 20.5 69 27 1.3 34.4
12:55 1020 30.12 850 25.1 20.9 69.6 26 0.8 33.4
13:00 1020 30.12 850 25.1 21.1 69.9 25 0.6 33
13:05 1020 30.12 850 25.1 21.3 70.4 26 1.1 34
13:10 1020 30.12 850 25.1 21.1 69.9 26 1 33.7
13:15 1020 30.12 850 25.1 21.3 70.3 25 0.8 33.4
13:20 1020 30.12 849 25.07 21.8 71.2 24 0.5 32.8
13:25 1020 30.12 849 25.07 21.7 71.1 26 1.6 34.9
13:30 1020 30.12 849 25.07 21.9 71.4 25 1 33.9
13:35 1020 30.12 849 25.07 22.5 72.4 23 0.6 33.1
13:40 1020 30.12 849 25.07 22.2 71.9 25 1.5 34.7
13:45 1020 30.12 849 25.07 21.8 71.3 25 1 33.7
13:50 1020 30.12 849 25.07 21.9 71.3 25 1 33.7
13:55 1020 30.12 849 25.07 21.3 70.3 25 0.7 33.2
14:00 1020 30.12 849 25.07 21.8 71.3 25 1 33.8
14:05 1020 30.12 849 25.07 22.1 71.8 25 1.6 34.8
14:10 1020 30.12 849 25.07 22.4 72.3 25 1.5 34.7
14:15 1020 30.12 849 25.07 22.1 71.8 26 1.7 35
14:20 1020 30.12 849 25.07 22.7 72.8 25 1.8 35.3
14:25 1020 30.12 849 25.07 22.5 72.5 26 2.3 36.2
14:30 1020 30.12 849 25.07 22.2 71.9 25 1.4 34.6
14:35 1020 30.12 849 25.07 22.3 72.2 26 1.9 35.4
14:40 1020 30.12 849 25.07 22.6 72.6 24 1.3 34.3
14:45 1020 30.12 849 25.07 23 73.5 23 1.2 34.1
14:50 1020 30.12 849 25.07 23.5 74.4 24 2 35.7
14:55 1020 30.12 849 25.07 23.4 74.1 22 0.8 33.4
15:00 1020 30.12 849 25.07 23.8 74.8 22 1 33.7
15:05 1020 30.12 849 25.07 23.9 74.9 23 1.9 35.5
15:10 1020 30.12 849 25.07 23.8 74.9 23 1.9 35.4
15:15 1020 30.12 849 25.07 23.9 75 21 0.3 32.5
15:20 1020 30.12 849 25.07 24.3 75.7 21 0.9 33.7
15:25 1020 30.12 849 25.07 25 77 22 1.9 35.4
15:30 1019 30.09 849 25.07 24.5 76.2 21 1 33.8
15:35 1019 30.09 849 25.07 24.3 75.8 22 1.4 34.4
15:40 1019 30.09 849 25.07 25.1 77.1 20 1 33.8
15:45 1019 30.09 849 25.07 25.4 77.8 21 1.6 34.8
15:50 1019 30.09 849 25.07 25.9 78.6 20 1.6 34.9
15:55 1019 30.09 849 25.07 25.2 77.3 21 1.8 35.2
16:00 1019 30.09 848 25.04 25.1 77.2 21 1.7 35
16:05 1019 30.09 848 25.04 23.4 74.1 22 0.9 33.7
16:10 1019 30.09 848 25.04 23.8 74.8 23 1.4 34.6
16:15 1019 30.09 848 25.04 24.1 75.3 22 1.5 34.6
16:20 1019 30.09 848 25.04 23.9 74.9 23 1.9 35.4
16:25 1019 30.09 848 25.04 23.7 74.7 23 1.4 34.4
16:30 1019 30.09 848 25.04 23.9 75 23 1.6 34.8
16:35 1019 30.09 848 25.04 24.4 75.9 21 1 33.8
16:40 1019 30.09 848 25.04 24.5 76.1 22 2 35.5
16:45 1019 30.09 848 25.04 24.6 76.3 21 1.2 34.2
16:50 1019 30.09 848 25.04 24.8 76.7 22 1.9 35.4
16:55 1019 30.09 848 25.04 25.4 77.8 21 1.5 34.7
17:00 1019 30.09 848 25.04 25.5 77.8 20 1.4 34.6
17:05 1019 30.09 848 25.04 25.3 77.5 21 1.7 35.1
17:10 1019 30.09 848 25.04 25.2 77.3 22 2.4 36.3
17:15 1019 30.09 848 25.04 24.9 76.8 21 1.4 34.6
17:20 1019 30.09 848 25.04 25.5 77.8 22 2.1 35.9
17:25 1019 30.09 848 25.04 25.6 78 22 2.3 36.1
17:30 1019 30.09 848 25.04 25.7 78.2 21 2 35.6
17:35 1019 30.09 848 25.04 26 78.8 21 2 35.7
17:40 1019 30.09 848 25.04 24.9 76.7 23 2.8 37.1
17:45 1019 30.09 848 25.04 24.9 76.8 22 2 35.6
17:50 1019 30.09 848 25.04 25.4 77.6 22 2.3 36.1
17:55 1019 30.09 848 25.04 25.4 77.6 21 1.9 35.3
18:00 1019 30.09 848 25.04 25.5 77.9 21 1.9 35.4
18:05 1019 30.09 848 25.04 25.4 77.7 22 2.4 36.4
18:10 1019 30.09 848 25.04 25 76.9 23 2.7 36.9
18:15 1019 30.09 848 25.04 24.6 76.4 24 2.9 37.2
18:20 1019 30.09 848 25.04 24.7 76.5 24 2.8 37
18:25 1019 30.09 848 25.04 24.3 75.8 24 3 37.3
18:30 1019 30.09 848 25.04 23.8 74.8 26 3.5 38.3
18:35 1019 30.09 848 25.04 23.6 74.4 26 3 37.4
18:40 1019 30.09 848 25.04 23.4 74.2 26 3.1 37.6
18:45 1019 30.09 848 25.04 23.4 74.1 26 3.1 37.6
18:50 1019 30.09 848 25.04 23.3 73.9 26 3.1 37.6
18:55 1019 30.09 848 25.04 23.3 73.9 27 3.4 38.1
19:00 1019 30.09 848 25.04 23.3 74 27 3.6 38.5
19:05 1019 30.09 848 25.04 23.4 74 27 3.4 38.1
19:10 1019 30.09 848 25.04 23.3 73.9 27 3.6 38.5
19:15 1019 30.09 848 25.04 23.1 73.6 27 3.5 38.2
19:20 1019 30.09 848 25.04 22.9 73.2 28 3.7 38.6
19:25 1019 30.09 848 25.04 22.8 73 28 3.6 38.5
19:30 1019 30.09 848 25.04 22.6 72.7 28 3.4 38.1
19:35 1019 30.09 848 25.04 22.3 72.2 29 3.7 38.6
19:40 1019 30.09 848 25.04 22.1 71.8 30 3.8 38.8
19:45 1019 30.09 849 25.07 21.9 71.4 31 4.1 39.5
19:50 1019 30.09 849 25.07 21.6 70.9 31 4 39.3
19:55 1020 30.12 849 25.07 21.4 70.5 32 4.3 39.7
20:00 1020 30.12 849 25.07 21.1 70 33 4.2 39.6
20:05 1020 30.12 849 25.07 20.9 69.6 33 4.2 39.5
20:10 1020 30.12 849 25.07 20.7 69.3 33 4.1 39.4
20:15 1020 30.12 849 25.07 20.5 68.9 34 4.3 39.7
20:20 1020 30.12 849 25.07 20.3 68.5 34 4.1 39.4
20:25 1020 30.12 849 25.07 20 68.1 34 3.9 39.1
20:30 1020 30.12 849 25.07 19.9 67.9 35 4.4 39.8
20:35 1020 30.12 849 25.07 19.7 67.5 35 3.9 39
20:40 1020 30.12 849 25.07 19.5 67.1 36 4.2 39.6
20:45 1020 30.12 849 25.07 19.4 66.9 37 4.3 39.7
20:50 1020 30.12 850 25.1 18.8 65.8 42 5.7 42.2
20:55 1020 30.12 850 25.1 17.4 63.2 43 4.9 40.8
21:00 1021 30.15 850 25.1 17.1 62.8 43 4.6 40.4
21:05 1021 30.15 850 25.1 17.3 63.2 42 4.4 39.9
21:10 1021 30.15 850 25.1 17.7 63.9 40 4.2 39.5
21:15 1021 30.15 850 25.1 18 64.4 40 4.5 40.1
21:20 1021 30.15 850 25.1 18.1 64.5 39 4.1 39.3
21:25 1021 30.15 850 25.1 18.4 65 39 4.3 39.7
21:30 1021 30.15 850 25.1 18.3 64.9 39 4.4 39.9
21:35 1021 30.15 850 25.1 18.2 64.7 40 4.6 40.2
21:40 1021 30.15 850 25.1 18.1 64.5 41 4.8 40.6
21:45 1021 30.15 850 25.1 17.9 64.1 41 4.6 40.3
21:50 1021 30.15 850 25.1 17.7 63.9 42 4.8 40.7
21:55 1021 30.15 850 25.1 17.6 63.7 42 4.8 40.7
22:00 1021 30.15 851 25.13 17.5 63.5 43 4.9 40.8
22:05 1021 30.15 851 25.13 17.3 63.2 44 5 41.1
22:10 1021 30.15 851 25.13 16.7 62 48 5.7 42.3
22:15 1021 30.15 851 25.13 15.7 60.2 49 5 41.1
22:20 1022 30.18 851 25.13 15.6 60.1 49 4.9 40.8
22:25 1022 30.18 851 25.13 15.8 60.4 48 4.7 40.5
22:30 1022 30.18 851 25.13 16.2 61.1 46 4.6 40.3
22:35 1022 30.18 851 25.13 16.5 61.6 45 4.8 40.6
22:40 1022 30.18 851 25.13 16.4 61.6 47 5.1 41.2
22:45 1022 30.18 851 25.13 16.4 61.4 46 4.9 40.8
22:50 1022 30.18 851 25.13 16.7 62.1 46 5.2 41.3
22:55 1022 30.18 851 25.13 16.8 62.2 46 5.3 41.6
23:00 1022 30.18 851 25.13 16.7 62.1 47 5.4 41.7
23:05 1022 30.18 851 25.13 16.8 62.2 47 5.5 41.9
23:10 1022 30.18 851 25.13 16.4 61.6 48 5.6 42.1
23:15 1022 30.18 851 25.13 16.1 61 49 5.5 42
23:20 1022 30.18 851 25.13 16 60.7 50 5.7 42.3
23:25 1022 30.18 851 25.13 15.6 60 53 6 42.8
23:30 1022 30.18 851 25.13 15.2 59.3 53 5.8 42.5
23:35 1022 30.18 851 25.13 15.1 59.1 52 5.5 41.9
23:40 1022 30.18 851 25.13 15.2 59.4 52 5.6 42.1
23:45 1022 30.18 851 25.13 14.9 58.7 53 5.6 42.1
23:50 1022 30.18 851 25.13 14.8 58.7 53 5.5 42
23:55 1022 30.18 851 25.13 14.4 57.9 56 5.9 42.6
24:00 1022 30.18 851 25.13 13.5 56.4 58 5.5 41.8